EGDW weather

Merryfield RNAS Air Base
Ilminster, England, United Kingdom

Public forecast

Using degrees Celsius for public forecast. Weather courtesy of forecast.io.

METAR (pilot weather report)

Closest report is RNAS Yeovilton, 11.6 nm (21.4 km) ENE. Retrieved 2019/07/24 06:27 UTC (0 seconds ago):

EGDY 240627Z 27007KT 9000 HZ BKN009 18/16 Q1012 BECMG 9999 NSW FEW030 BLU RMK GRN BECMG BLU

TAF (pilot weather forecast)

Forecast is more than 12 hours old.

Closest forecast is RNAS Yeovilton, 11.6 nm (21.4 km) ENE. Retrieved 2019/05/01 18:06 UTC (3 months ago):

TAF TAF EGDY 010100Z 3018/0103 CNL